Bilsthorpe, United Kingdom
Current Conditions -  °F | °C
As of 4:50 AM on Monday 22 Dec 2014 (Local Time) from EGXW Reporting Station
Broken Clouds Broken Clouds  
Wind Chill: 55°   Ceiling: 2000
Heat Index: 55°   Visibility: 6mi
Dew Point: 48°   Wind: 31mph
Humidity: 77%   Direction: 250°WSW
Pressure: 29.85"   Gusts: 46mph
Location:  53.14°N, 1.03°W
Report Text: EGXW 220450Z 25027G40KT 9999 BKN020 13/09 Q1011 WHT
Loading
Personal Weather Stations






























Interactive Weather Map New forecast layout! Learn more

10-Day Weather Forecast

Advertisements
Track Severe Weather on mobile